sensor_id;sensor_type;location;lat;lon;timestamp;temperature;humidity
53695;DHT22;39588;51.124;7.190;2023-05-15T00:02:20;13.60;97.50
53695;DHT22;39588;51.124;7.190;2023-05-15T00:04:46;13.60;97.30
53695;DHT22;39588;51.124;7.190;2023-05-15T00:07:12;13.60;97.40
53695;DHT22;39588;51.124;7.190;2023-05-15T00:41:19;13.20;97.60
53695;DHT22;39588;51.124;7.190;2023-05-15T00:43:49;13.20;97.80
53695;DHT22;39588;51.124;7.190;2023-05-15T00:46:16;13.10;97.70
53695;DHT22;39588;51.124;7.190;2023-05-15T00:48:42;13.10;97.80
53695;DHT22;39588;51.124;7.190;2023-05-15T00:51:09;13.10;97.90
53695;DHT22;39588;51.124;7.190;2023-05-15T00:53:35;13.10;97.80
53695;DHT22;39588;51.124;7.190;2023-05-15T00:56:03;13.10;97.80
53695;DHT22;39588;51.124;7.190;2023-05-15T00:58:31;13.10;97.80
53695;DHT22;39588;51.124;7.190;2023-05-15T01:03:37;13.00;97.90
53695;DHT22;39588;51.124;7.190;2023-05-15T01:06:04;13.00;97.90
53695;DHT22;39588;51.124;7.190;2023-05-15T01:08:38;13.00;97.90
53695;DHT22;39588;51.124;7.190;2023-05-15T01:11:07;12.90;97.80
53695;DHT22;39588;51.124;7.190;2023-05-15T01:13:33;12.90;97.90
53695;DHT22;39588;51.124;7.190;2023-05-15T01:15:59;12.90;98.00
53695;DHT22;39588;51.124;7.190;2023-05-15T01:18:24;12.90;97.90
53695;DHT22;39588;51.124;7.190;2023-05-15T01:26:59;13.00;97.60
53695;DHT22;39588;51.124;7.190;2023-05-15T01:30:28;13.00;97.60
53695;DHT22;39588;51.124;7.190;2023-05-15T01:33:02;13.00;97.70
53695;DHT22;39588;51.124;7.190;2023-05-15T01:38:15;13.00;97.70
53695;DHT22;39588;51.124;7.190;2023-05-15T01:40:44;13.00;97.70
53695;DHT22;39588;51.124;7.190;2023-05-15T01:43:19;13.00;97.60
53695;DHT22;39588;51.124;7.190;2023-05-15T01:45:46;13.00;97.40
53695;DHT22;39588;51.124;7.190;2023-05-15T01:48:12;13.00;97.20
53695;DHT22;39588;51.124;7.190;2023-05-15T01:50:40;13.00;97.70
53695;DHT22;39588;51.124;7.190;2023-05-15T01:53:07;12.90;98.10
53695;DHT22;39588;51.124;7.190;2023-05-15T01:55:36;12.80;98.10
53695;DHT22;39588;51.124;7.190;2023-05-15T01:58:02;12.60;98.20
53695;DHT22;39588;51.124;7.190;2023-05-15T02:00:29;12.50;98.40
53695;DHT22;39588;51.124;7.190;2023-05-15T02:02:56;12.40;98.50
53695;DHT22;39588;51.124;7.190;2023-05-15T02:05:22;12.40;98.70
53695;DHT22;39588;51.124;7.190;2023-05-15T02:07:50;12.20;98.70
53695;DHT22;39588;51.124;7.190;2023-05-15T02:10:16;12.20;98.90
53695;DHT22;39588;51.124;7.190;2023-05-15T02:12:43;12.10;98.80
53695;DHT22;39588;51.124;7.190;2023-05-15T02:22:29;11.90;99.10
53695;DHT22;39588;51.124;7.190;2023-05-15T02:24:55;11.90;99.20
53695;DHT22;39588;51.124;7.190;2023-05-15T02:32:52;11.80;99.30
53695;DHT22;39588;51.124;7.190;2023-05-15T02:52:41;11.70;99.40
53695;DHT22;39588;51.124;7.190;2023-05-15T03:17:02;11.80;99.90
53695;DHT22;39588;51.124;7.190;2023-05-15T03:26:45;11.80;99.90
53695;DHT22;39588;51.124;7.190;2023-05-15T03:31:37;12.00;99.90
53695;DHT22;39588;51.124;7.190;2023-05-15T03:34:03;11.90;99.90
53695;DHT22;39588;51.124;7.190;2023-05-15T03:36:29;11.80;99.90
53695;DHT22;39588;51.124;7.190;2023-05-15T03:58:22;12.00;99.90
53695;DHT22;39588;51.124;7.190;2023-05-15T04:00:48;12.00;99.90
53695;DHT22;39588;51.124;7.190;2023-05-15T04:08:06;12.20;99.90
53695;DHT22;39588;51.124;7.190;2023-05-15T04:10:32;12.20;99.90
53695;DHT22;39588;51.124;7.190;2023-05-15T04:15:24;12.30;99.90
53695;DHT22;39588;51.124;7.190;2023-05-15T04:22:45;12.30;99.90
53695;DHT22;39588;51.124;7.190;2023-05-15T04:27:39;12.20;99.90
53695;DHT22;39588;51.124;7.190;2023-05-15T04:37:29;12.30;99.90
53695;DHT22;39588;51.124;7.190;2023-05-15T04:42:21;12.40;99.90
53695;DHT22;39588;51.124;7.190;2023-05-15T04:52:07;12.50;99.90
53695;DHT22;39588;51.124;7.190;2023-05-15T04:59:25;12.50;99.90
53695;DHT22;39588;51.124;7.190;2023-05-15T05:14:09;12.40;99.90
53695;DHT22;39588;51.124;7.190;2023-05-15T05:16:35;12.50;99.90
53695;DHT22;39588;51.124;7.190;2023-05-15T05:19:00;12.60;99.90
53695;DHT22;39588;51.124;7.190;2023-05-15T05:21:26;12.60;99.90
53695;DHT22;39588;51.124;7.190;2023-05-15T06:00:23;12.30;99.90
53695;DHT22;39588;51.124;7.190;2023-05-15T06:15:04;12.60;99.90
53695;DHT22;39588;51.124;7.190;2023-05-15T06:54:06;13.30;99.90
53695;DHT22;39588;51.124;7.190;2023-05-15T06:56:31;13.40;99.90
53695;DHT22;39588;51.124;7.190;2023-05-15T06:58:57;13.40;99.90
53695;DHT22;39588;51.124;7.190;2023-05-15T07:03:49;13.40;99.90
53695;DHT22;39588;51.124;7.190;2023-05-15T07:13:34;13.60;99.90
53695;DHT22;39588;51.124;7.190;2023-05-15T07:40:20;13.70;99.90
53695;DHT22;39588;51.124;7.190;2023-05-15T07:59:49;13.50;99.90
53695;DHT22;39588;51.124;7.190;2023-05-15T08:04:41;13.40;99.90
53695;DHT22;39588;51.124;7.190;2023-05-15T08:09:33;13.40;99.90
53695;DHT22;39588;51.124;7.190;2023-05-15T08:12:14;13.60;99.90
53695;DHT22;39588;51.124;7.190;2023-05-15T08:17:11;14.20;99.90
53695;DHT22;39588;51.124;7.190;2023-05-15T08:41:39;14.50;99.50
53695;DHT22;39588;51.124;7.190;2023-05-15T08:46:35;15.20;99.60
53695;DHT22;39588;51.124;7.190;2023-05-15T09:01:16;15.40;98.60
53695;DHT22;39588;51.124;7.190;2023-05-15T09:03:41;15.40;98.40
53695;DHT22;39588;51.124;7.190;2023-05-15T09:11:01;15.80;98.60
53695;DHT22;39588;51.124;7.190;2023-05-15T09:15:55;15.60;97.90
53695;DHT22;39588;51.124;7.190;2023-05-15T09:23:24;15.80;97.90
53695;DHT22;39588;51.124;7.190;2023-05-15T09:25:50;15.70;98.00
53695;DHT22;39588;51.124;7.190;2023-05-15T09:28:28;15.80;98.30
53695;DHT22;39588;51.124;7.190;2023-05-15T09:33:33;16.00;98.10
53695;DHT22;39588;51.124;7.190;2023-05-15T09:35:59;15.90;98.30
53695;DHT22;39588;51.124;7.190;2023-05-15T09:38:26;15.90;98.10
53695;DHT22;39588;51.124;7.190;2023-05-15T09:41:01;16.00;97.80
53695;DHT22;39588;51.124;7.190;2023-05-15T09:48:27;15.70;97.50
53695;DHT22;39588;51.124;7.190;2023-05-15T09:50:53;15.90;97.40
53695;DHT22;39588;51.124;7.190;2023-05-15T09:55:47;16.70;97.60
53695;DHT22;39588;51.124;7.190;2023-05-15T09:58:14;17.20;96.70
53695;DHT22;39588;51.124;7.190;2023-05-15T10:00:41;17.40;96.40
53695;DHT22;39588;51.124;7.190;2023-05-15T10:03:08;17.60;95.60
53695;DHT22;39588;51.124;7.190;2023-05-15T10:10:27;17.60;95.90
53695;DHT22;39588;51.124;7.190;2023-05-15T10:12:55;17.60;94.90
53695;DHT22;39588;51.124;7.190;2023-05-15T10:15:23;17.80;95.90
53695;DHT22;39588;51.124;7.190;2023-05-15T10:17:50;18.00;95.20
53695;DHT22;39588;51.124;7.190;2023-05-15T10:20:18;18.30;96.20
53695;DHT22;39588;51.124;7.190;2023-05-15T10:22:55;18.70;95.50
53695;DHT22;39588;51.124;7.190;2023-05-15T10:25:46;18.90;94.90
53695;DHT22;39588;51.124;7.190;2023-05-15T10:28:15;19.00;94.90
53695;DHT22;39588;51.124;7.190;2023-05-15T10:35:34;18.80;93.90
53695;DHT22;39588;51.124;7.190;2023-05-15T10:38:03;18.30;92.80
53695;DHT22;39588;51.124;7.190;2023-05-15T10:40:29;18.10;94.50
53695;DHT22;39588;51.124;7.190;2023-05-15T10:42:55;18.10;95.00
53695;DHT22;39588;51.124;7.190;2023-05-15T10:47:50;18.70;95.80
53695;DHT22;39588;51.124;7.190;2023-05-15T10:50:17;18.70;92.80
53695;DHT22;39588;51.124;7.190;2023-05-15T10:52:42;18.50;92.20
53695;DHT22;39588;51.124;7.190;2023-05-15T10:55:13;18.40;92.60
53695;DHT22;39588;51.124;7.190;2023-05-15T10:57:38;18.30;93.60
53695;DHT22;39588;51.124;7.190;2023-05-15T11:00:24;18.40;93.00
53695;DHT22;39588;51.124;7.190;2023-05-15T11:02:50;18.30;91.40
53695;DHT22;39588;51.124;7.190;2023-05-15T11:05:21;18.30;91.60
53695;DHT22;39588;51.124;7.190;2023-05-15T11:10:43;18.40;92.30
53695;DHT22;39588;51.124;7.190;2023-05-15T11:13:09;18.40;92.00
53695;DHT22;39588;51.124;7.190;2023-05-15T11:15:44;18.50;92.70
53695;DHT22;39588;51.124;7.190;2023-05-15T11:18:10;18.50;90.90
53695;DHT22;39588;51.124;7.190;2023-05-15T11:23:20;18.70;91.80
53695;DHT22;39588;51.124;7.190;2023-05-15T11:25:52;18.80;91.50
53695;DHT22;39588;51.124;7.190;2023-05-15T11:28:23;19.10;92.40
53695;DHT22;39588;51.124;7.190;2023-05-15T11:30:51;19.40;90.80
53695;DHT22;39588;51.124;7.190;2023-05-15T11:33:19;19.60;90.80
53695;DHT22;39588;51.124;7.190;2023-05-15T11:35:55;19.50;87.60
53695;DHT22;39588;51.124;7.190;2023-05-15T11:38:23;19.30;88.90
53695;DHT22;39588;51.124;7.190;2023-05-15T11:43:34;19.70;86.90
53695;DHT22;39588;51.124;7.190;2023-05-15T11:46:07;19.40;81.80
53695;DHT22;39588;51.124;7.190;2023-05-15T11:48:39;19.00;82.50
53695;DHT22;39588;51.124;7.190;2023-05-15T11:51:20;18.70;80.10
53695;DHT22;39588;51.124;7.190;2023-05-15T11:53:48;18.70;82.40
53695;DHT22;39588;51.124;7.190;2023-05-15T11:56:21;18.80;80.80
53695;DHT22;39588;51.124;7.190;2023-05-15T11:58:53;18.60;80.60
53695;DHT22;39588;51.124;7.190;2023-05-15T12:01:19;18.70;80.00
53695;DHT22;39588;51.124;7.190;2023-05-15T12:03:48;18.60;80.30
53695;DHT22;39588;51.124;7.190;2023-05-15T12:06:14;18.60;80.50
53695;DHT22;39588;51.124;7.190;2023-05-15T12:08:40;18.50;78.30
53695;DHT22;39588;51.124;7.190;2023-05-15T12:11:07;18.20;75.70
53695;DHT22;39588;51.124;7.190;2023-05-15T12:13:33;18.20;73.30
53695;DHT22;39588;51.124;7.190;2023-05-15T12:16:03;18.20;73.60
53695;DHT22;39588;51.124;7.190;2023-05-15T12:18:32;18.40;74.20
53695;DHT22;39588;51.124;7.190;2023-05-15T12:20:58;18.50;71.80
53695;DHT22;39588;51.124;7.190;2023-05-15T12:23:25;18.40;69.70
53695;DHT22;39588;51.124;7.190;2023-05-15T12:25:53;18.50;69.20
53695;DHT22;39588;51.124;7.190;2023-05-15T12:28:22;18.50;70.30
53695;DHT22;39588;51.124;7.190;2023-05-15T12:33:14;18.60;67.90
53695;DHT22;39588;51.124;7.190;2023-05-15T12:35:42;18.70;67.40
53695;DHT22;39588;51.124;7.190;2023-05-15T12:38:08;18.70;67.50
53695;DHT22;39588;51.124;7.190;2023-05-15T12:40:38;18.80;68.50
53695;DHT22;39588;51.124;7.190;2023-05-15T12:43:07;18.70;68.20
53695;DHT22;39588;51.124;7.190;2023-05-15T12:52:57;18.80;66.80
53695;DHT22;39588;51.124;7.190;2023-05-15T12:57:57;19.00;64.60
53695;DHT22;39588;51.124;7.190;2023-05-15T13:00:24;18.90;61.40
53695;DHT22;39588;51.124;7.190;2023-05-15T13:02:52;18.80;60.20
53695;DHT22;39588;51.124;7.190;2023-05-15T13:05:19;18.70;61.20
53695;DHT22;39588;51.124;7.190;2023-05-15T13:07:47;18.70;64.60
53695;DHT22;39588;51.124;7.190;2023-05-15T13:10:13;18.80;62.30
53695;DHT22;39588;51.124;7.190;2023-05-15T13:12:43;19.00;61.70
53695;DHT22;39588;51.124;7.190;2023-05-15T13:15:43;19.00;58.40
53695;DHT22;39588;51.124;7.190;2023-05-15T13:18:14;19.10;60.10
53695;DHT22;39588;51.124;7.190;2023-05-15T13:23:08;19.30;60.90
53695;DHT22;39588;51.124;7.190;2023-05-15T13:25:34;19.50;58.80
53695;DHT22;39588;51.124;7.190;2023-05-15T13:28:02;19.80;59.10
53695;DHT22;39588;51.124;7.190;2023-05-15T13:32:54;20.10;58.50
53695;DHT22;39588;51.124;7.190;2023-05-15T13:35:20;20.10;60.30
53695;DHT22;39588;51.124;7.190;2023-05-15T13:37:46;20.30;58.00
53695;DHT22;39588;51.124;7.190;2023-05-15T13:40:12;20.30;60.20
53695;DHT22;39588;51.124;7.190;2023-05-15T13:42:42;20.40;61.70
53695;DHT22;39588;51.124;7.190;2023-05-15T13:45:12;20.60;62.00
53695;DHT22;39588;51.124;7.190;2023-05-15T13:47:38;20.50;58.80
53695;DHT22;39588;51.124;7.190;2023-05-15T13:50:08;20.30;59.60
53695;DHT22;39588;51.124;7.190;2023-05-15T13:52:34;20.20;57.60
53695;DHT22;39588;51.124;7.190;2023-05-15T13:55:00;20.10;55.70
53695;DHT22;39588;51.124;7.190;2023-05-15T13:59:52;19.60;58.70
53695;DHT22;39588;51.124;7.190;2023-05-15T14:04:45;19.90;58.50
53695;DHT22;39588;51.124;7.190;2023-05-15T14:07:16;20.10;59.10
53695;DHT22;39588;51.124;7.190;2023-05-15T14:21:52;20.10;58.00
53695;DHT22;39588;51.124;7.190;2023-05-15T14:26:44;19.60;57.30
53695;DHT22;39588;51.124;7.190;2023-05-15T14:29:10;19.30;57.20
53695;DHT22;39588;51.124;7.190;2023-05-15T14:31:36;19.00;56.40
53695;DHT22;39588;51.124;7.190;2023-05-15T14:34:02;18.70;58.30
53695;DHT22;39588;51.124;7.190;2023-05-15T14:36:27;18.70;60.40
53695;DHT22;39588;51.124;7.190;2023-05-15T14:46:12;19.60;59.20
53695;DHT22;39588;51.124;7.190;2023-05-15T14:51:03;19.30;60.00
53695;DHT22;39588;51.124;7.190;2023-05-15T14:58:23;18.80;64.00
53695;DHT22;39588;51.124;7.190;2023-05-15T15:00:49;18.90;65.20
53695;DHT22;39588;51.124;7.190;2023-05-15T15:03:14;18.90;66.40
53695;DHT22;39588;51.124;7.190;2023-05-15T15:05:40;18.80;66.70
53695;DHT22;39588;51.124;7.190;2023-05-15T15:08:07;18.60;67.50
53695;DHT22;39588;51.124;7.190;2023-05-15T15:10:34;18.50;68.80
53695;DHT22;39588;51.124;7.190;2023-05-15T15:13:01;18.60;70.50
53695;DHT22;39588;51.124;7.190;2023-05-15T15:15:29;18.80;69.30
53695;DHT22;39588;51.124;7.190;2023-05-15T15:17:56;18.80;68.40
53695;DHT22;39588;51.124;7.190;2023-05-15T15:20:23;18.60;67.60
53695;DHT22;39588;51.124;7.190;2023-05-15T15:22:51;18.50;67.80
53695;DHT22;39588;51.124;7.190;2023-05-15T15:25:17;18.50;68.00
53695;DHT22;39588;51.124;7.190;2023-05-15T15:27:43;18.50;67.40
53695;DHT22;39588;51.124;7.190;2023-05-15T15:32:38;18.30;68.80
53695;DHT22;39588;51.124;7.190;2023-05-15T15:35:05;18.30;70.30
53695;DHT22;39588;51.124;7.190;2023-05-15T15:37:33;18.30;71.90
53695;DHT22;39588;51.124;7.190;2023-05-15T15:39:59;18.30;72.20
53695;DHT22;39588;51.124;7.190;2023-05-15T15:42:25;18.10;73.10
53695;DHT22;39588;51.124;7.190;2023-05-15T15:44:55;18.10;74.30
53695;DHT22;39588;51.124;7.190;2023-05-15T15:47:23;18.40;75.20
53695;DHT22;39588;51.124;7.190;2023-05-15T15:49:52;18.60;74.30
53695;DHT22;39588;51.124;7.190;2023-05-15T15:52:18;18.80;72.60
53695;DHT22;39588;51.124;7.190;2023-05-15T15:57:17;18.40;72.70
53695;DHT22;39588;51.124;7.190;2023-05-15T16:02:10;18.30;73.20
53695;DHT22;39588;51.124;7.190;2023-05-15T16:04:37;18.20;73.90
53695;DHT22;39588;51.124;7.190;2023-05-15T16:07:03;18.40;73.30
53695;DHT22;39588;51.124;7.190;2023-05-15T16:09:29;18.40;72.10
53695;DHT22;39588;51.124;7.190;2023-05-15T16:11:55;18.30;73.40
53695;DHT22;39588;51.124;7.190;2023-05-15T16:14:21;18.20;70.80
53695;DHT22;39588;51.124;7.190;2023-05-15T16:16:47;18.00;70.40
53695;DHT22;39588;51.124;7.190;2023-05-15T16:19:13;18.00;72.40
53695;DHT22;39588;51.124;7.190;2023-05-15T16:21:38;17.90;73.20
53695;DHT22;39588;51.124;7.190;2023-05-15T16:24:04;17.70;74.40
53695;DHT22;39588;51.124;7.190;2023-05-15T16:36:16;17.80;85.90
53695;DHT22;39588;51.124;7.190;2023-05-15T16:38:42;17.70;90.20
53695;DHT22;39588;51.124;7.190;2023-05-15T16:43:34;17.50;92.70
53695;DHT22;39588;51.124;7.190;2023-05-15T16:48:26;17.30;93.90
53695;DHT22;39588;51.124;7.190;2023-05-15T16:50:52;17.10;94.40
53695;DHT22;39588;51.124;7.190;2023-05-15T16:53:18;17.00;94.80
53695;DHT22;39588;51.124;7.190;2023-05-15T16:55:44;16.90;95.00
53695;DHT22;39588;51.124;7.190;2023-05-15T16:58:10;16.80;95.20
53695;DHT22;39588;51.124;7.190;2023-05-15T17:00:35;16.60;95.60
53695;DHT22;39588;51.124;7.190;2023-05-15T17:05:28;16.50;95.60
53695;DHT22;39588;51.124;7.190;2023-05-15T17:07:54;16.30;95.00
53695;DHT22;39588;51.124;7.190;2023-05-15T17:20:04;15.90;95.50
53695;DHT22;39588;51.124;7.190;2023-05-15T17:22:30;15.90;95.60
53695;DHT22;39588;51.124;7.190;2023-05-15T17:29:48;15.80;95.30
53695;DHT22;39588;51.124;7.190;2023-05-15T17:32:15;15.80;95.60
53695;DHT22;39588;51.124;7.190;2023-05-15T17:34:41;15.80;95.80
53695;DHT22;39588;51.124;7.190;2023-05-15T17:37:07;15.90;95.70
53695;DHT22;39588;51.124;7.190;2023-05-15T17:41:59;15.80;95.60
53695;DHT22;39588;51.124;7.190;2023-05-15T17:44:25;15.70;95.60
53695;DHT22;39588;51.124;7.190;2023-05-15T17:46:54;15.70;95.90
53695;DHT22;39588;51.124;7.190;2023-05-15T17:49:20;15.80;95.90
53695;DHT22;39588;51.124;7.190;2023-05-15T17:51:45;15.90;95.70
53695;DHT22;39588;51.124;7.190;2023-05-15T17:54:11;16.00;95.70
53695;DHT22;39588;51.124;7.190;2023-05-15T17:59:03;16.00;95.40
53695;DHT22;39588;51.124;7.190;2023-05-15T18:01:29;16.10;95.40
53695;DHT22;39588;51.124;7.190;2023-05-15T18:03:54;16.00;95.50
53695;DHT22;39588;51.124;7.190;2023-05-15T18:06:20;15.90;95.70
53695;DHT22;39588;51.124;7.190;2023-05-15T18:11:13;15.70;96.00
53695;DHT22;39588;51.124;7.190;2023-05-15T18:13:39;15.60;96.10
53695;DHT22;39588;51.124;7.190;2023-05-15T18:16:05;15.60;96.40
53695;DHT22;39588;51.124;7.190;2023-05-15T18:20:57;15.60;96.50
53695;DHT22;39588;51.124;7.190;2023-05-15T18:23:22;15.50;96.70
53695;DHT22;39588;51.124;7.190;2023-05-15T18:25:49;15.40;97.00
53695;DHT22;39588;51.124;7.190;2023-05-15T18:28:15;15.30;97.10
53695;DHT22;39588;51.124;7.190;2023-05-15T18:30:41;15.10;97.40
53695;DHT22;39588;51.124;7.190;2023-05-15T18:33:07;15.00;97.50
53695;DHT22;39588;51.124;7.190;2023-05-15T18:35:34;15.00;97.70
53695;DHT22;39588;51.124;7.190;2023-05-15T18:37:59;14.90;97.80
53695;DHT22;39588;51.124;7.190;2023-05-15T18:42:52;14.90;98.00
53695;DHT22;39588;51.124;7.190;2023-05-15T18:45:27;14.80;98.10
53695;DHT22;39588;51.124;7.190;2023-05-15T18:47:53;14.70;98.20
53695;DHT22;39588;51.124;7.190;2023-05-15T18:50:19;14.70;98.10
53695;DHT22;39588;51.124;7.190;2023-05-15T18:52:45;14.60;98.10
53695;DHT22;39588;51.124;7.190;2023-05-15T18:55:11;14.40;98.10
53695;DHT22;39588;51.124;7.190;2023-05-15T19:00:04;14.30;98.20
53695;DHT22;39588;51.124;7.190;2023-05-15T19:04:57;14.10;98.50
53695;DHT22;39588;51.124;7.190;2023-05-15T19:07:25;13.90;98.70
53695;DHT22;39588;51.124;7.190;2023-05-15T19:09:54;13.80;98.80
53695;DHT22;39588;51.124;7.190;2023-05-15T19:12:24;13.90;99.00
53695;DHT22;39588;51.124;7.190;2023-05-15T19:19:45;13.80;98.80
53695;DHT22;39588;51.124;7.190;2023-05-15T19:22:11;13.70;98.90
53695;DHT22;39588;51.124;7.190;2023-05-15T19:27:05;13.60;99.10
53695;DHT22;39588;51.124;7.190;2023-05-15T19:29:31;13.60;99.40
53695;DHT22;39588;51.124;7.190;2023-05-15T19:36:50;13.50;99.90
53695;DHT22;39588;51.124;7.190;2023-05-15T19:39:16;13.60;99.90
53695;DHT22;39588;51.124;7.190;2023-05-15T19:41:41;13.60;99.90
53695;DHT22;39588;51.124;7.190;2023-05-15T19:44:07;13.60;99.90
53695;DHT22;39588;51.124;7.190;2023-05-15T19:46:33;13.50;99.90
53695;DHT22;39588;51.124;7.190;2023-05-15T19:48:59;13.50;99.90
53695;DHT22;39588;51.124;7.190;2023-05-15T19:51:25;13.40;99.90
53695;DHT22;39588;51.124;7.190;2023-05-15T19:56:19;13.30;99.90
53695;DHT22;39588;51.124;7.190;2023-05-15T19:58:46;13.30;99.90
53695;DHT22;39588;51.124;7.190;2023-05-15T20:01:13;13.20;99.90
53695;DHT22;39588;51.124;7.190;2023-05-15T20:03:40;13.20;99.90
53695;DHT22;39588;51.124;7.190;2023-05-15T20:08:31;13.20;99.90
53695;DHT22;39588;51.124;7.190;2023-05-15T20:15:54;13.00;99.90
53695;DHT22;39588;51.124;7.190;2023-05-15T20:18:23;12.90;99.90
53695;DHT22;39588;51.124;7.190;2023-05-15T20:23:17;12.90;99.90
53695;DHT22;39588;51.124;7.190;2023-05-15T20:25:44;12.90;99.90
53695;DHT22;39588;51.124;7.190;2023-05-15T20:28:10;12.90;99.90
53695;DHT22;39588;51.124;7.190;2023-05-15T20:30:36;12.90;99.90
53695;DHT22;39588;51.124;7.190;2023-05-15T20:33:03;13.00;99.90
53695;DHT22;39588;51.124;7.190;2023-05-15T20:35:29;12.90;99.90
53695;DHT22;39588;51.124;7.190;2023-05-15T20:37:55;12.90;99.90
53695;DHT22;39588;51.124;7.190;2023-05-15T20:40:23;12.90;99.90
53695;DHT22;39588;51.124;7.190;2023-05-15T20:42:49;13.00;99.90
53695;DHT22;39588;51.124;7.190;2023-05-15T20:45:15;13.00;99.90
53695;DHT22;39588;51.124;7.190;2023-05-15T20:50:08;12.70;99.90
53695;DHT22;39588;51.124;7.190;2023-05-15T20:52:34;12.70;99.90
53695;DHT22;39588;51.124;7.190;2023-05-15T20:54:59;12.70;99.90
53695;DHT22;39588;51.124;7.190;2023-05-15T20:57:25;12.70;99.90
53695;DHT22;39588;51.124;7.190;2023-05-15T20:59:55;12.70;99.90
53695;DHT22;39588;51.124;7.190;2023-05-15T21:04:47;12.80;99.90
53695;DHT22;39588;51.124;7.190;2023-05-15T21:07:13;12.80;99.90
53695;DHT22;39588;51.124;7.190;2023-05-15T21:21:49;12.50;99.90
53695;DHT22;39588;51.124;7.190;2023-05-15T21:34:00;12.40;99.90
53695;DHT22;39588;51.124;7.190;2023-05-15T21:38:51;12.40;99.90
53695;DHT22;39588;51.124;7.190;2023-05-15T21:41:17;12.40;99.90
53695;DHT22;39588;51.124;7.190;2023-05-15T21:43:43;12.40;99.90
53695;DHT22;39588;51.124;7.190;2023-05-15T21:46:08;12.30;99.90
53695;DHT22;39588;51.124;7.190;2023-05-15T21:53:26;12.30;99.90
53695;DHT22;39588;51.124;7.190;2023-05-15T21:55:58;12.30;99.90
53695;DHT22;39588;51.124;7.190;2023-05-15T22:03:17;12.40;99.90
53695;DHT22;39588;51.124;7.190;2023-05-15T22:15:28;12.30;99.90
53695;DHT22;39588;51.124;7.190;2023-05-15T22:17:53;12.30;99.90
53695;DHT22;39588;51.124;7.190;2023-05-15T22:25:11;12.40;99.90
53695;DHT22;39588;51.124;7.190;2023-05-15T22:27:37;12.40;99.90
53695;DHT22;39588;51.124;7.190;2023-05-15T22:30:03;12.40;99.90
53695;DHT22;39588;51.124;7.190;2023-05-15T22:32:30;12.30;99.90
53695;DHT22;39588;51.124;7.190;2023-05-15T22:39:48;12.30;99.90
53695;DHT22;39588;51.124;7.190;2023-05-15T22:42:13;12.30;99.90
53695;DHT22;39588;51.124;7.190;2023-05-15T22:44:39;12.20;99.90
53695;DHT22;39588;51.124;7.190;2023-05-15T22:49:32;12.10;99.90
53695;DHT22;39588;51.124;7.190;2023-05-15T22:51:58;12.00;99.90
53695;DHT22;39588;51.124;7.190;2023-05-15T22:56:51;11.90;99.90
53695;DHT22;39588;51.124;7.190;2023-05-15T22:59:17;11.90;99.90
53695;DHT22;39588;51.124;7.190;2023-05-15T23:01:43;11.90;99.90
53695;DHT22;39588;51.124;7.190;2023-05-15T23:06:35;11.90;99.90
53695;DHT22;39588;51.124;7.190;2023-05-15T23:09:01;11.90;99.90
53695;DHT22;39588;51.124;7.190;2023-05-15T23:11:29;11.90;99.90
53695;DHT22;39588;51.124;7.190;2023-05-15T23:13:55;11.80;99.90
53695;DHT22;39588;51.124;7.190;2023-05-15T23:16:21;11.80;99.90
53695;DHT22;39588;51.124;7.190;2023-05-15T23:38:16;11.70;99.90
53695;DHT22;39588;51.124;7.190;2023-05-15T23:43:08;11.60;99.90
53695;DHT22;39588;51.124;7.190;2023-05-15T23:57:44;11.20;99.90
